createdAt,value
2023-04-16T00:00:04.692Z,14.87
2023-04-16T00:02:39.152Z,14.87
2023-04-16T00:05:07.683Z,14.79
2023-04-16T00:07:35.366Z,14.77
2023-04-16T00:10:03.200Z,14.81
2023-04-16T00:12:30.959Z,14.75
2023-04-16T00:14:59.005Z,14.81
2023-04-16T00:17:26.735Z,14.76
2023-04-16T00:19:54.443Z,14.84
2023-04-16T00:22:22.158Z,14.79
2023-04-16T00:24:49.866Z,14.78
2023-04-16T00:27:20.328Z,14.84
2023-04-16T00:29:48.666Z,14.83
2023-04-16T00:32:16.885Z,14.83
2023-04-16T00:34:44.702Z,14.78
2023-04-16T00:37:12.431Z,14.79
2023-04-16T00:39:40.312Z,14.78
2023-04-16T00:42:08.063Z,14.77
2023-04-16T00:44:36.363Z,14.81
2023-04-16T00:47:06.218Z,14.81
2023-04-16T00:49:34.842Z,14.81
2023-04-16T00:52:03.363Z,14.81
2023-04-16T00:54:32.964Z,14.81
2023-04-16T00:57:01.544Z,14.90
2023-04-16T00:59:30.037Z,14.82
2023-04-16T01:01:57.856Z,14.89
2023-04-16T01:04:26.325Z,14.92
2023-04-16T01:06:54.531Z,14.91
2023-04-16T01:09:22.180Z,14.84
2023-04-16T01:11:49.852Z,14.86
2023-04-16T01:14:17.518Z,14.85
2023-04-16T01:16:45.257Z,14.85
2023-04-16T01:19:12.928Z,14.87
2023-04-16T01:21:40.752Z,14.84
2023-04-16T01:24:08.812Z,14.82
2023-04-16T01:26:36.532Z,14.75
2023-04-16T01:29:04.166Z,14.72
2023-04-16T01:31:31.942Z,14.75
2023-04-16T01:34:05.477Z,14.72
2023-04-16T01:36:33.684Z,14.67
2023-04-16T01:39:01.336Z,14.68
2023-04-16T01:41:28.908Z,14.65
2023-04-16T01:43:56.499Z,14.62
2023-04-16T01:46:29.222Z,14.60
2023-04-16T01:48:58.106Z,14.50
2023-04-16T01:51:25.884Z,14.54
2023-04-16T01:53:53.883Z,14.53
2023-04-16T01:56:21.528Z,14.47
2023-04-16T01:58:49.208Z,14.49
2023-04-16T02:01:19.065Z,14.56
2023-04-16T02:03:48.327Z,14.52
2023-04-16T02:06:16.448Z,14.51
2023-04-16T02:08:44.687Z,14.47
2023-04-16T02:11:12.283Z,14.57
2023-04-16T02:13:40.377Z,14.58
2023-04-16T02:16:08.869Z,14.57
2023-04-16T02:18:43.863Z,14.51
2023-04-16T02:21:13.941Z,14.57
2023-04-16T02:23:42.150Z,14.58
2023-04-16T02:26:10.464Z,14.57
2023-04-16T02:28:39.169Z,14.55
2023-04-16T02:31:08.007Z,14.59
2023-04-16T02:33:41.558Z,14.59
2023-04-16T02:36:11.097Z,14.56
2023-04-16T02:38:38.740Z,14.56
2023-04-16T02:41:08.827Z,14.50
2023-04-16T02:43:36.705Z,14.56
2023-04-16T02:46:05.413Z,14.55
2023-04-16T02:48:33.282Z,14.53
2023-04-16T02:51:01.114Z,14.55
2023-04-16T02:53:28.801Z,14.51
2023-04-16T02:55:56.548Z,14.58
2023-04-16T02:58:26.367Z,14.56
2023-04-16T03:00:55.798Z,14.43
2023-04-16T03:03:23.608Z,14.50
2023-04-16T03:05:51.285Z,14.52
2023-04-16T03:08:19.376Z,14.51
2023-04-16T03:10:46.986Z,14.56
2023-04-16T03:13:15.763Z,14.53
2023-04-16T03:15:50.040Z,14.58
2023-04-16T03:18:17.943Z,14.45
2023-04-16T03:20:45.741Z,14.48
2023-04-16T03:23:13.458Z,14.53
2023-04-16T03:25:41.169Z,14.59
2023-04-16T03:28:10.358Z,14.61
2023-04-16T03:30:38.990Z,14.60
2023-04-16T03:33:07.374Z,14.60
2023-04-16T03:35:35.765Z,14.61
2023-04-16T03:38:04.081Z,14.64
2023-04-16T03:40:32.112Z,14.64
2023-04-16T03:43:00.827Z,14.61
2023-04-16T03:45:29.500Z,14.56
2023-04-16T03:47:57.524Z,14.63
2023-04-16T03:50:26.820Z,14.67
2023-04-16T03:52:54.813Z,14.67
2023-04-16T03:55:22.498Z,14.68
2023-04-16T03:57:50.197Z,14.65
2023-04-16T04:00:18.202Z,14.68
2023-04-16T04:02:59.156Z,14.66
2023-04-16T04:05:27.036Z,14.68
2023-04-16T04:07:54.765Z,14.66
2023-04-16T04:10:22.610Z,14.67
2023-04-16T04:12:50.409Z,14.65
2023-04-16T04:15:18.360Z,14.58
2023-04-16T04:17:46.216Z,14.56
2023-04-16T04:20:14.111Z,14.58
2023-04-16T04:22:45.132Z,14.57
2023-04-16T04:25:13.274Z,14.56
2023-04-16T04:27:41.034Z,14.59
2023-04-16T04:30:10.017Z,14.58
2023-04-16T04:32:38.765Z,14.59
2023-04-16T04:35:07.130Z,14.60
2023-04-16T04:37:34.975Z,14.59
2023-04-16T04:40:11.717Z,14.58
2023-04-16T04:42:39.497Z,14.60
2023-04-16T04:45:08.315Z,14.56
2023-04-16T04:47:36.556Z,14.45
2023-04-16T04:50:06.787Z,14.55
2023-04-16T04:52:34.950Z,14.49
2023-04-16T04:55:03.760Z,14.51
2023-04-16T04:57:31.565Z,14.45
2023-04-16T04:59:59.603Z,14.46
2023-04-16T05:02:31.129Z,14.45
2023-04-16T05:04:59.215Z,14.39
2023-04-16T05:07:29.198Z,14.46
2023-04-16T05:09:56.816Z,14.48
2023-04-16T05:12:24.743Z,14.49
2023-04-16T05:14:52.568Z,14.46
2023-04-16T05:17:20.236Z,14.51
2023-04-16T05:19:48.004Z,14.57
2023-04-16T05:22:18.849Z,14.57
2023-04-16T05:24:46.662Z,14.57
2023-04-16T05:27:14.943Z,14.56
2023-04-16T05:29:42.615Z,14.53
2023-04-16T05:32:10.754Z,14.56
2023-04-16T05:34:38.525Z,14.52
2023-04-16T05:37:06.257Z,14.52
2023-04-16T05:39:34.204Z,14.50
2023-04-16T05:42:02.034Z,14.48
2023-04-16T05:44:29.895Z,14.46
2023-04-16T05:46:57.584Z,14.46
2023-04-16T05:49:26.533Z,14.48
2023-04-16T05:51:54.295Z,14.54
2023-04-16T05:54:22.078Z,14.53
2023-04-16T05:56:49.745Z,14.54
2023-04-16T05:59:17.568Z,14.49
2023-04-16T06:01:45.295Z,14.59
2023-04-16T06:04:13.230Z,14.63
2023-04-16T06:06:41.050Z,14.61
2023-04-16T06:09:12.462Z,14.62
2023-04-16T06:11:40.253Z,14.68
2023-04-16T06:14:07.991Z,14.66
2023-04-16T06:16:35.748Z,14.69
2023-04-16T06:19:03.502Z,14.75
2023-04-16T06:21:31.749Z,14.75
2023-04-16T06:23:59.562Z,14.78
2023-04-16T06:26:27.289Z,14.79
2023-04-16T06:28:54.983Z,14.81
2023-04-16T06:31:22.691Z,14.81
2023-04-16T06:33:50.420Z,14.83
2023-04-16T06:36:18.220Z,14.83
2023-04-16T06:38:46.393Z,14.88
2023-04-16T06:41:16.881Z,14.99
2023-04-16T06:43:44.879Z,15.00
2023-04-16T06:46:12.582Z,15.03
2023-04-16T06:48:40.319Z,15.02
2023-04-16T06:51:08.260Z,15.07
2023-04-16T06:53:37.792Z,15.15
2023-04-16T06:56:06.776Z,15.20
2023-04-16T06:58:34.465Z,15.18
2023-04-16T07:01:02.696Z,15.18
2023-04-16T07:03:31.314Z,15.21
2023-04-16T07:05:59.059Z,15.27
2023-04-16T07:08:26.821Z,15.30
2023-04-16T07:10:54.892Z,15.29
2023-04-16T07:13:22.662Z,15.28
2023-04-16T07:15:50.367Z,15.23
2023-04-16T07:18:19.287Z,15.17
2023-04-16T07:20:48.677Z,15.19
2023-04-16T07:23:16.402Z,15.21
2023-04-16T07:25:44.614Z,15.28
2023-04-16T07:28:12.875Z,15.32
2023-04-16T07:30:40.556Z,15.34
2023-04-16T07:33:08.269Z,15.37
2023-04-16T07:35:36.445Z,15.37
2023-04-16T07:38:04.136Z,15.37
2023-04-16T07:40:33.303Z,15.42
2023-04-16T07:43:01.176Z,15.47
2023-04-16T07:45:29.232Z,15.57
2023-04-16T07:47:57.001Z,15.67
2023-04-16T07:50:25.419Z,15.78
2023-04-16T07:52:53.513Z,15.79
2023-04-16T07:55:22.760Z,15.79
2023-04-16T07:57:50.661Z,15.80
2023-04-16T08:00:18.362Z,15.82
2023-04-16T08:02:46.484Z,15.83
2023-04-16T08:05:14.314Z,15.87
2023-04-16T08:07:42.243Z,15.86
2023-04-16T08:10:10.078Z,15.98
2023-04-16T08:12:38.851Z,15.97
2023-04-16T08:15:07.553Z,15.93
2023-04-16T08:17:37.622Z,15.88
2023-04-16T08:20:06.966Z,15.88
2023-04-16T08:22:34.774Z,15.93
2023-04-16T08:25:04.356Z,15.97
2023-04-16T08:27:32.117Z,15.91
2023-04-16T08:29:59.869Z,15.98
2023-04-16T08:32:29.807Z,15.97
2023-04-16T08:34:57.991Z,16.00
2023-04-16T08:37:26.593Z,16.02
2023-04-16T08:39:54.342Z,15.97
2023-04-16T08:42:40.608Z,16.03
2023-04-16T08:45:17.162Z,16.03
2023-04-16T08:47:51.087Z,16.05
2023-04-16T08:50:24.330Z,16.08
2023-04-16T08:53:00.485Z,16.12
2023-04-16T08:55:41.263Z,16.04
2023-04-16T08:58:15.061Z,16.04
2023-04-16T09:00:44.094Z,16.00
2023-04-16T09:03:13.371Z,15.97
2023-04-16T09:05:43.886Z,15.97
2023-04-16T09:08:12.458Z,15.96
2023-04-16T09:10:40.332Z,15.99
2023-04-16T09:13:11.606Z,15.95
2023-04-16T09:15:45.251Z,16.04
2023-04-16T09:18:13.037Z,16.05
2023-04-16T09:20:46.865Z,16.03
2023-04-16T09:23:14.568Z,16.01
2023-04-16T09:25:46.645Z,16.04
2023-04-16T09:28:48.776Z,16.03
2023-04-16T09:31:18.638Z,16.05
2023-04-16T09:34:09.125Z,16.04
2023-04-16T09:36:37.402Z,16.08
2023-04-16T09:39:07.361Z,16.04
2023-04-16T09:41:39.885Z,16.10
2023-04-16T09:44:07.689Z,16.10
2023-04-16T09:46:40.547Z,16.08
2023-04-16T09:49:18.044Z,16.09
2023-04-16T09:51:50.898Z,16.03
2023-04-16T09:54:20.370Z,16.08
2023-04-16T09:56:48.058Z,16.02
2023-04-16T09:59:26.643Z,15.98
2023-04-16T10:02:15.226Z,15.99
2023-04-16T10:04:54.004Z,15.95
2023-04-16T10:07:22.507Z,15.96
2023-04-16T10:09:52.450Z,15.96
2023-04-16T10:12:22.747Z,15.95
2023-04-16T10:14:50.745Z,15.91
2023-04-16T10:17:21.162Z,15.93
2023-04-16T10:19:49.499Z,15.91
2023-04-16T10:22:17.392Z,15.89
2023-04-16T10:24:46.929Z,15.81
2023-04-16T10:27:17.218Z,15.79
2023-04-16T10:29:45.891Z,15.78
2023-04-16T10:32:14.249Z,15.83
2023-04-16T10:34:42.482Z,15.74
2023-04-16T10:37:10.242Z,15.76
2023-04-16T10:39:40.540Z,15.75
2023-04-16T10:42:13.298Z,15.73
2023-04-16T10:44:45.049Z,15.73
2023-04-16T10:47:14.366Z,15.74
2023-04-16T10:49:43.570Z,15.73
2023-04-16T10:52:20.145Z,15.70
2023-04-16T10:54:50.023Z,15.65
2023-04-16T10:57:20.494Z,15.66
2023-04-16T10:59:49.695Z,15.66
2023-04-16T11:02:18.811Z,15.62
2023-04-16T11:04:49.655Z,15.63
2023-04-16T11:07:19.803Z,15.59
2023-04-16T11:10:00.475Z,15.59
2023-04-16T11:12:46.323Z,15.53
2023-04-16T11:15:17.050Z,15.44
2023-04-16T11:17:45.634Z,15.42
2023-04-16T11:20:20.938Z,15.43
2023-04-16T11:22:50.588Z,15.39
2023-04-16T11:25:30.046Z,15.32
2023-04-16T11:28:01.531Z,15.30
2023-04-16T11:30:38.881Z,15.32
2023-04-16T11:33:11.620Z,15.31
2023-04-16T11:35:41.264Z,15.35
2023-04-16T11:38:08.991Z,15.30
2023-04-16T11:40:36.702Z,15.27
2023-04-16T11:43:14.842Z,15.29
2023-04-16T11:46:13.226Z,15.25
2023-04-16T11:48:53.268Z,15.25
2023-04-16T11:51:23.827Z,15.18
2023-04-16T11:53:56.118Z,15.18
2023-04-16T11:56:33.210Z,15.28
2023-04-16T11:59:11.238Z,15.28
2023-04-16T12:01:41.638Z,15.28
2023-04-16T12:04:10.225Z,15.30
2023-04-16T12:06:38.359Z,15.35
2023-04-16T12:09:27.158Z,15.43
2023-04-16T12:11:57.018Z,15.38
2023-04-16T12:14:24.702Z,15.42
2023-04-16T12:16:52.980Z,15.45
2023-04-16T12:19:21.482Z,15.43
2023-04-16T12:21:51.029Z,15.42
2023-04-16T12:24:26.776Z,15.38
2023-04-16T12:27:03.108Z,15.39
2023-04-16T12:29:31.952Z,15.37
2023-04-16T12:31:59.847Z,15.39
2023-04-16T12:34:51.576Z,15.36
2023-04-16T12:37:21.324Z,15.38
2023-04-16T12:39:49.054Z,15.36
2023-04-16T12:42:16.879Z,15.44
2023-04-16T12:44:44.749Z,15.46
2023-04-16T12:47:12.496Z,15.48
2023-04-16T12:49:40.193Z,15.48
2023-04-16T12:52:14.441Z,15.52
2023-04-16T12:54:44.508Z,15.58
2023-04-16T12:57:12.547Z,15.62
2023-04-16T12:59:40.302Z,15.65
2023-04-16T13:02:10.466Z,15.67
2023-04-16T13:04:40.348Z,15.65
2023-04-16T13:07:09.897Z,15.70
2023-04-16T13:09:39.646Z,15.72
2023-04-16T13:12:07.871Z,15.68
2023-04-16T13:14:35.938Z,15.69
2023-04-16T13:17:06.356Z,15.68
2023-04-16T13:19:37.441Z,15.69
2023-04-16T13:22:05.208Z,15.73
2023-04-16T13:24:34.565Z,15.74
2023-04-16T13:27:02.312Z,15.76
2023-04-16T13:29:30.210Z,15.79
2023-04-16T13:31:58.276Z,15.74
2023-04-16T13:34:25.984Z,15.79
2023-04-16T13:36:54.390Z,15.71
2023-04-16T13:39:22.325Z,15.73
2023-04-16T13:41:52.058Z,15.74
2023-04-16T13:44:19.814Z,15.78
2023-04-16T13:46:47.883Z,15.80
2023-04-16T13:49:36.252Z,15.84
2023-04-16T13:52:37.009Z,15.77
2023-04-16T13:55:05.239Z,15.81
2023-04-16T13:57:33.687Z,15.81
2023-04-16T14:00:02.326Z,15.81
2023-04-16T14:02:32.771Z,15.82
2023-04-16T14:05:03.168Z,15.87
2023-04-16T14:07:32.523Z,15.89
2023-04-16T14:10:00.432Z,15.88
2023-04-16T14:12:28.295Z,15.92
2023-04-16T14:14:56.414Z,15.94
2023-04-16T14:17:24.214Z,15.95
2023-04-16T14:19:52.992Z,15.97
2023-04-16T14:22:20.809Z,15.97
2023-04-16T14:24:48.478Z,15.98
2023-04-16T14:27:16.987Z,16.01
2023-04-16T14:29:46.492Z,16.02
2023-04-16T14:32:14.490Z,16.04
2023-04-16T14:34:42.314Z,16.06
2023-04-16T14:37:10.780Z,16.00
2023-04-16T14:39:39.259Z,16.00
2023-04-16T14:42:07.147Z,15.95
2023-04-16T14:44:34.896Z,15.96
2023-04-16T14:47:02.946Z,15.96
2023-04-16T14:49:30.921Z,15.96
2023-04-16T14:51:59.512Z,15.99
2023-04-16T14:54:28.113Z,16.00
2023-04-16T14:56:56.688Z,16.04
2023-04-16T14:59:24.485Z,16.04
2023-04-16T15:01:58.859Z,16.03
2023-04-16T15:04:26.822Z,16.02
2023-04-16T15:06:58.747Z,15.99
2023-04-16T15:09:27.528Z,16.00
2023-04-16T15:11:55.364Z,16.02
2023-04-16T15:14:23.117Z,16.06
2023-04-16T15:16:52.300Z,16.09
2023-04-16T15:19:20.202Z,16.10
2023-04-16T15:21:48.934Z,16.15
2023-04-16T15:24:16.688Z,16.12
2023-04-16T15:26:45.390Z,16.16
2023-04-16T15:29:14.022Z,16.17
2023-04-16T15:31:41.867Z,16.17
2023-04-16T15:34:09.803Z,16.22
2023-04-16T15:36:37.772Z,16.24
2023-04-16T15:39:05.516Z,16.25
2023-04-16T15:41:37.124Z,16.27
2023-04-16T15:44:06.266Z,16.28
2023-04-16T15:46:34.130Z,16.21
2023-04-16T15:49:02.243Z,16.24
2023-04-16T15:51:31.574Z,16.25
2023-04-16T15:53:59.249Z,16.25
2023-04-16T15:56:27.284Z,16.21
2023-04-16T15:58:56.246Z,16.21
2023-04-16T16:01:24.890Z,16.24
2023-04-16T16:03:52.854Z,16.28
2023-04-16T16:06:21.036Z,16.30
2023-04-16T16:08:50.106Z,16.30
2023-04-16T16:11:17.873Z,16.27
2023-04-16T16:13:45.776Z,16.28
2023-04-16T16:16:13.471Z,16.27
2023-04-16T16:18:42.132Z,16.28
2023-04-16T16:21:11.166Z,16.26
2023-04-16T16:23:38.887Z,16.21
2023-04-16T16:26:07.073Z,16.23
2023-04-16T16:28:37.734Z,16.22
2023-04-16T16:31:07.093Z,16.23
2023-04-16T16:33:36.879Z,16.21
2023-04-16T16:36:09.405Z,16.21
2023-04-16T16:38:37.310Z,16.03
2023-04-16T16:41:04.892Z,16.09
2023-04-16T16:43:33.182Z,16.14
2023-04-16T16:46:00.876Z,16.18
2023-04-16T16:48:29.276Z,16.20
2023-04-16T16:50:58.299Z,16.17
2023-04-16T16:53:26.180Z,16.18
2023-04-16T16:55:54.025Z,16.18
2023-04-16T16:58:21.979Z,16.11
2023-04-16T17:00:49.760Z,16.18
2023-04-16T17:03:17.904Z,16.18
2023-04-16T17:05:45.944Z,16.15
2023-04-16T17:08:13.949Z,16.15
2023-04-16T17:10:43.490Z,16.13
2023-04-16T17:13:13.616Z,16.15
2023-04-16T17:15:42.005Z,16.12
2023-04-16T17:18:09.808Z,16.15
2023-04-16T17:20:37.940Z,16.14
2023-04-16T17:23:07.806Z,16.17
2023-04-16T17:25:35.990Z,16.19
2023-04-16T17:28:03.973Z,16.16
2023-04-16T17:30:32.026Z,16.16
2023-04-16T17:32:59.827Z,16.12
2023-04-16T17:35:27.899Z,16.09
2023-04-16T17:37:55.799Z,16.10
2023-04-16T17:40:23.563Z,16.07
2023-04-16T17:42:51.542Z,16.10
2023-04-16T17:45:19.412Z,16.10
2023-04-16T17:47:47.141Z,16.10
2023-04-16T17:50:17.050Z,16.09
2023-04-16T17:52:44.873Z,16.08
2023-04-16T17:55:12.645Z,16.06
2023-04-16T17:57:40.959Z,16.06
2023-04-16T18:00:12.493Z,16.06
2023-04-16T18:02:43.818Z,15.87
2023-04-16T18:05:11.663Z,15.93
2023-04-16T18:07:41.135Z,15.99
2023-04-16T18:10:09.787Z,16.02
2023-04-16T18:12:37.616Z,16.00
2023-04-16T18:15:07.127Z,15.97
2023-04-16T18:17:35.134Z,15.95
2023-04-16T18:20:05.349Z,16.03
2023-04-16T18:22:33.131Z,16.03
2023-04-16T18:25:01.126Z,16.04
2023-04-16T18:29:56.926Z,16.01
2023-04-16T18:32:24.745Z,15.96
2023-04-16T18:34:52.546Z,15.98
2023-04-16T18:37:20.650Z,16.05
2023-04-16T18:39:48.651Z,16.06
2023-04-16T18:42:16.370Z,16.08
2023-04-16T18:44:44.148Z,16.07
2023-04-16T18:47:11.847Z,16.05
2023-04-16T18:49:39.565Z,16.04
2023-04-16T18:52:07.262Z,16.09
2023-04-16T18:54:34.961Z,16.08
2023-04-16T18:57:04.002Z,16.07
2023-04-16T18:59:31.663Z,16.06
2023-04-16T19:01:59.890Z,16.07
2023-04-16T19:04:27.745Z,16.07
2023-04-16T19:06:55.826Z,16.10
2023-04-16T19:09:26.408Z,16.08
2023-04-16T19:11:55.995Z,16.10
2023-04-16T19:14:23.825Z,16.10
2023-04-16T19:16:51.491Z,16.09
2023-04-16T19:19:19.219Z,16.08
2023-04-16T19:21:46.920Z,16.03
2023-04-16T19:24:14.867Z,16.07
2023-04-16T19:26:45.038Z,15.99
2023-04-16T19:29:13.138Z,16.00
2023-04-16T19:31:40.960Z,16.04
2023-04-16T19:34:10.863Z,16.00
2023-04-16T19:36:38.708Z,16.05
2023-04-16T19:39:06.460Z,16.03
2023-04-16T19:41:34.199Z,16.01
2023-04-16T19:44:02.066Z,16.02
2023-04-16T19:46:32.542Z,16.03
2023-04-16T19:49:00.297Z,16.01
2023-04-16T19:51:28.215Z,16.00
2023-04-16T19:53:56.458Z,15.98
2023-04-16T19:56:24.132Z,16.02
2023-04-16T19:58:51.842Z,15.99
2023-04-16T20:01:19.675Z,15.97
2023-04-16T20:03:47.461Z,16.04
2023-04-16T20:06:17.380Z,16.05
2023-04-16T20:08:45.329Z,16.02
2023-04-16T20:11:12.980Z,16.00
2023-04-16T20:13:40.730Z,15.99
2023-04-16T20:16:09.400Z,15.95
2023-04-16T20:18:41.249Z,15.97
2023-04-16T20:21:10.447Z,15.92
2023-04-16T20:23:38.258Z,15.94
2023-04-16T20:26:06.891Z,15.95
2023-04-16T20:28:34.616Z,15.93
2023-04-16T20:31:05.258Z,15.85
2023-04-16T20:33:33.029Z,15.86
2023-04-16T20:36:00.758Z,15.88
2023-04-16T20:38:32.190Z,15.87
2023-04-16T20:41:09.986Z,15.66
2023-04-16T20:43:38.837Z,15.73
2023-04-16T20:46:08.179Z,15.76
2023-04-16T20:48:36.258Z,15.78
2023-04-16T20:51:06.078Z,15.75
2023-04-16T20:53:36.963Z,15.71
2023-04-16T20:56:05.182Z,15.73
2023-04-16T20:58:32.986Z,15.74
2023-04-16T21:01:01.030Z,15.72
2023-04-16T21:03:29.059Z,15.73
2023-04-16T21:05:56.865Z,15.78
2023-04-16T21:08:24.911Z,15.76
2023-04-16T21:10:52.670Z,15.75
2023-04-16T21:13:21.601Z,15.78
2023-04-16T21:15:49.461Z,15.77
2023-04-16T21:18:18.525Z,15.77
2023-04-16T21:20:46.668Z,15.77
2023-04-16T21:23:14.430Z,15.72
2023-04-16T21:25:42.165Z,15.76
2023-04-16T21:28:09.921Z,15.77
2023-04-16T21:30:38.293Z,15.74
2023-04-16T21:33:06.605Z,15.75
2023-04-16T21:35:34.930Z,15.71
2023-04-16T21:38:02.612Z,15.77
2023-04-16T21:40:30.364Z,15.77
2023-04-16T21:42:58.140Z,15.78
2023-04-16T21:45:25.856Z,15.78
2023-04-16T21:47:53.604Z,15.77
2023-04-16T21:50:21.418Z,15.79
2023-04-16T21:52:52.502Z,15.70
2023-04-16T21:55:20.735Z,15.76
2023-04-16T21:57:48.549Z,15.74
2023-04-16T22:00:18.164Z,15.76
2023-04-16T22:02:46.009Z,15.73
2023-04-16T22:05:14.046Z,15.70
2023-04-16T22:07:43.282Z,15.77
2023-04-16T22:10:13.582Z,15.77
2023-04-16T22:12:45.629Z,15.79
2023-04-16T22:15:15.776Z,15.77
2023-04-16T22:17:43.994Z,15.78
2023-04-16T22:20:13.101Z,15.74
2023-04-16T22:22:42.326Z,15.77
2023-04-16T22:25:11.296Z,15.76
2023-04-16T22:27:39.069Z,15.78
2023-04-16T22:30:08.290Z,15.78
2023-04-16T22:32:36.283Z,15.77
2023-04-16T22:35:04.637Z,15.79
2023-04-16T22:37:33.518Z,15.78
2023-04-16T22:40:01.629Z,15.82
2023-04-16T22:42:29.367Z,15.81
2023-04-16T22:44:57.177Z,15.79
2023-04-16T22:47:24.949Z,15.78
2023-04-16T22:49:53.691Z,15.74
2023-04-16T22:52:21.426Z,15.78
2023-04-16T22:54:49.216Z,15.72
2023-04-16T22:57:20.958Z,15.76
2023-04-16T22:59:48.803Z,15.74
2023-04-16T23:02:16.815Z,15.68
2023-04-16T23:04:46.008Z,15.75
2023-04-16T23:07:14.753Z,15.71
2023-04-16T23:09:42.683Z,15.71
2023-04-16T23:12:10.427Z,15.67
2023-04-16T23:14:38.156Z,15.67
2023-04-16T23:17:05.968Z,15.72
2023-04-16T23:19:33.668Z,15.72
2023-04-16T23:22:01.376Z,15.69
2023-04-16T23:24:29.085Z,15.71
2023-04-16T23:26:57.856Z,15.67
2023-04-16T23:29:25.569Z,15.61
2023-04-16T23:31:53.287Z,15.58
2023-04-16T23:34:21.283Z,15.63
2023-04-16T23:36:49.079Z,15.60
2023-04-16T23:39:16.809Z,15.60
2023-04-16T23:41:45.095Z,15.55
2023-04-16T23:44:12.785Z,15.58
2023-04-16T23:46:40.931Z,15.56
2023-04-16T23:49:08.854Z,15.53
2023-04-16T23:51:36.672Z,15.49
2023-04-16T23:54:04.609Z,15.45
2023-04-16T23:56:32.295Z,15.45
2023-04-16T23:58:59.947Z,15.45
